createdAt,value
2022-10-13T00:01:20.070Z,100404.22
2022-10-13T00:03:48.411Z,100409.50
2022-10-13T00:06:31.887Z,100405.41
2022-10-13T00:09:00.095Z,100411.53
2022-10-13T00:11:29.882Z,100416.91
2022-10-13T00:14:01.556Z,100413.28
2022-10-13T00:16:33.312Z,100409.91
2022-10-13T00:19:01.030Z,100410.00
2022-10-13T00:21:29.553Z,100412.75
2022-10-13T00:23:57.511Z,100408.53
2022-10-13T00:26:27.184Z,100414.28
2022-10-13T00:28:56.372Z,100404.16
2022-10-13T00:31:28.965Z,100405.03
2022-10-13T00:33:57.863Z,100405.78
2022-10-13T00:36:25.820Z,100403.06
2022-10-13T00:38:54.312Z,100404.16
2022-10-13T00:41:22.216Z,100398.88
2022-10-13T00:43:52.337Z,100393.63
2022-10-13T00:46:21.075Z,100397.72
2022-10-13T00:48:57.079Z,100396.75
2022-10-13T00:51:29.968Z,100394.31
2022-10-13T00:54:00.359Z,100388.41
2022-10-13T00:56:29.038Z,100391.28
2022-10-13T00:58:57.877Z,100393.91
2022-10-13T01:01:25.490Z,100393.66
2022-10-13T01:03:53.146Z,100392.69
2022-10-13T01:06:23.614Z,100395.09
2022-10-13T01:08:51.931Z,100400.84
2022-10-13T01:11:39.841Z,100404.25
2022-10-13T01:14:46.988Z,100397.78
2022-10-13T01:17:55.397Z,100397.88
2022-10-13T01:20:47.398Z,100393.38
2022-10-13T01:24:18.755Z,100397.56
2022-10-13T01:27:14.450Z,100402.72
2022-10-13T01:30:06.450Z,100389.00
2022-10-13T01:33:02.103Z,100386.63
2022-10-13T01:36:01.177Z,100386.75
2022-10-13T01:38:44.329Z,100379.88
2022-10-13T01:41:26.557Z,100390.19
2022-10-13T01:44:17.423Z,100378.34
2022-10-13T01:46:55.056Z,100374.69
2022-10-13T01:49:31.131Z,100368.59
2022-10-13T01:52:07.782Z,100364.53
2022-10-13T01:54:35.402Z,100362.47
2022-10-13T01:57:03.365Z,100359.53
2022-10-13T01:59:36.219Z,100358.28
2022-10-13T02:02:20.912Z,100363.34
2022-10-13T02:05:26.093Z,100355.97
2022-10-13T02:08:16.317Z,100355.97
2022-10-13T02:10:56.099Z,100355.56
2022-10-13T02:13:28.595Z,100353.13
2022-10-13T02:16:01.555Z,100342.69
2022-10-13T02:18:34.839Z,100346.69
2022-10-13T02:21:04.480Z,100345.50
2022-10-13T02:23:32.625Z,100354.09
2022-10-13T02:26:00.816Z,100345.75
2022-10-13T02:28:29.650Z,100346.88
2022-10-13T02:30:57.747Z,100343.22
2022-10-13T02:33:25.375Z,100341.84
2022-10-13T02:35:52.892Z,100345.84
2022-10-13T02:38:20.618Z,100352.84
2022-10-13T02:40:48.120Z,100359.28
2022-10-13T02:43:16.659Z,100357.41
2022-10-13T02:45:44.234Z,100356.75
2022-10-13T02:48:11.767Z,100362.56
2022-10-13T02:50:39.347Z,100357.44
2022-10-13T02:53:06.880Z,100360.41
2022-10-13T02:55:34.365Z,100358.72
2022-10-13T02:58:01.963Z,100352.38
2022-10-13T03:00:29.593Z,100355.44
2022-10-13T03:02:57.334Z,100358.88
2022-10-13T03:05:24.857Z,100357.38
2022-10-13T03:07:52.399Z,100350.78
2022-10-13T03:10:20.250Z,100346.06
2022-10-13T03:12:51.198Z,100351.47
2022-10-13T03:15:18.811Z,100349.78
2022-10-13T03:17:49.307Z,100349.94
2022-10-13T03:20:17.399Z,100353.75
2022-10-13T03:22:49.551Z,100355.34
2022-10-13T03:25:18.275Z,100344.41
2022-10-13T03:27:45.897Z,100350.16
2022-10-13T03:30:14.329Z,100352.44
2022-10-13T03:32:41.926Z,100350.09
2022-10-13T03:35:09.757Z,100339.63
2022-10-13T03:37:37.314Z,100349.03
2022-10-13T03:40:05.540Z,100343.97
2022-10-13T03:42:35.282Z,100343.63
2022-10-13T03:45:03.485Z,100338.94
2022-10-13T03:47:38.361Z,100344.38
2022-10-13T03:50:07.382Z,100339.00
2022-10-13T03:52:34.958Z,100339.59
2022-10-13T03:55:02.897Z,100341.53
2022-10-13T03:57:30.795Z,100334.59
2022-10-13T03:59:58.980Z,100336.56
2022-10-13T04:02:27.604Z,100334.88
2022-10-13T04:04:55.307Z,100343.09
2022-10-13T04:07:23.228Z,100342.81
2022-10-13T04:09:50.791Z,100335.88
2022-10-13T04:12:20.945Z,100341.31
2022-10-13T04:14:48.933Z,100335.25
2022-10-13T04:17:16.446Z,100334.84
2022-10-13T04:19:44.140Z,100335.19
2022-10-13T04:22:11.644Z,100339.41
2022-10-13T04:24:39.317Z,100327.69
2022-10-13T04:27:06.875Z,100340.63
2022-10-13T04:29:34.413Z,100339.53
2022-10-13T04:32:01.969Z,100339.41
2022-10-13T04:34:29.693Z,100340.53
2022-10-13T04:36:57.677Z,100342.66
2022-10-13T04:39:25.243Z,100344.38
2022-10-13T04:41:52.799Z,100349.09
2022-10-13T04:44:20.426Z,100346.22
2022-10-13T04:46:47.909Z,100346.56
2022-10-13T04:49:16.209Z,100348.97
2022-10-13T04:51:43.714Z,100350.78
2022-10-13T04:54:11.360Z,100353.03
2022-10-13T04:56:38.962Z,100350.75
2022-10-13T04:59:06.597Z,100359.09
2022-10-13T05:01:36.528Z,100356.72
2022-10-13T05:04:07.536Z,100361.47
2022-10-13T05:06:58.955Z,100362.94
2022-10-13T05:09:28.056Z,100361.84
2022-10-13T05:11:55.616Z,100363.47
2022-10-13T05:14:23.902Z,100366.88
2022-10-13T05:16:51.453Z,100366.38
2022-10-13T05:19:19.102Z,100357.66
2022-10-13T05:21:46.581Z,100361.13
2022-10-13T05:24:16.126Z,100358.22
2022-10-13T05:26:44.187Z,100366.53
2022-10-13T05:29:11.813Z,100363.41
2022-10-13T05:31:41.041Z,100360.22
2022-10-13T05:34:08.666Z,100363.13
2022-10-13T05:36:36.193Z,100362.97
2022-10-13T05:39:10.235Z,100364.00
2022-10-13T05:41:39.343Z,100369.41
2022-10-13T05:44:14.039Z,100375.47
2022-10-13T05:46:54.136Z,100376.75
2022-10-13T05:49:21.715Z,100376.09
2022-10-13T05:51:56.762Z,100386.72
2022-10-13T05:54:51.050Z,100388.03
2022-10-13T05:57:41.218Z,100389.69
2022-10-13T06:00:12.066Z,100391.22
2022-10-13T06:03:11.561Z,100390.63
2022-10-13T06:05:45.241Z,100397.63
2022-10-13T06:08:12.907Z,100398.41
2022-10-13T06:10:42.191Z,100399.09
2022-10-13T06:13:10.828Z,100400.09
2022-10-13T06:15:38.331Z,100396.47
2022-10-13T06:18:10.415Z,100397.69
2022-10-13T06:20:38.086Z,100402.00
2022-10-13T06:23:05.750Z,100409.41
2022-10-13T06:25:33.545Z,100409.22
2022-10-13T06:28:01.189Z,100419.16
2022-10-13T06:30:28.931Z,100407.03
2022-10-13T06:32:56.735Z,100401.53
2022-10-13T06:35:24.424Z,100400.00
2022-10-13T06:37:53.375Z,100398.81
2022-10-13T06:40:20.825Z,100403.38
2022-10-13T06:42:51.887Z,100406.16
2022-10-13T06:45:23.113Z,100400.63
2022-10-13T06:47:52.616Z,100393.41
2022-10-13T06:50:20.500Z,100394.72
2022-10-13T06:52:48.261Z,100390.00
2022-10-13T06:55:16.652Z,100389.81
2022-10-13T06:57:44.232Z,100390.28
2022-10-13T07:00:12.456Z,100395.56
2022-10-13T07:02:40.054Z,100393.13
2022-10-13T07:05:08.036Z,100391.28
2022-10-13T07:07:35.661Z,100384.34
2022-10-13T07:10:03.308Z,100388.50
2022-10-13T07:12:30.858Z,100384.09
2022-10-13T07:14:59.960Z,100386.38
2022-10-13T07:17:27.879Z,100387.56
2022-10-13T07:19:59.104Z,100374.19
2022-10-13T07:22:28.928Z,100378.28
2022-10-13T07:24:56.458Z,100375.00
2022-10-13T07:27:25.158Z,100380.94
2022-10-13T07:29:54.193Z,100375.69
2022-10-13T07:32:21.909Z,100371.09
2022-10-13T07:34:53.965Z,100359.78
2022-10-13T07:37:22.067Z,100370.19
2022-10-13T07:39:50.084Z,100360.47
2022-10-13T07:42:17.839Z,100360.34
2022-10-13T07:44:45.491Z,100364.13
2022-10-13T07:47:13.073Z,100359.06
2022-10-13T07:49:40.889Z,100350.47
2022-10-13T07:52:08.461Z,100352.97
2022-10-13T07:54:36.074Z,100349.09
2022-10-13T07:57:06.494Z,100343.28
2022-10-13T07:59:34.246Z,100348.31
2022-10-13T08:02:02.045Z,100344.25
2022-10-13T08:04:36.447Z,100353.06
2022-10-13T08:07:07.748Z,100348.09
2022-10-13T08:09:35.660Z,100351.75
2022-10-13T08:12:03.715Z,100354.09
2022-10-13T08:14:32.417Z,100344.03
2022-10-13T08:17:01.399Z,100344.41
2022-10-13T08:19:29.275Z,100339.84
2022-10-13T08:22:00.324Z,100332.91
2022-10-13T08:24:30.944Z,100332.63
2022-10-13T08:27:00.602Z,100331.59
2022-10-13T08:29:28.519Z,100321.97
2022-10-13T08:31:58.624Z,100327.03
2022-10-13T08:34:27.861Z,100317.03
2022-10-13T08:36:58.375Z,100311.66
2022-10-13T08:39:26.850Z,100317.44
2022-10-13T08:41:58.851Z,100317.19
2022-10-13T08:47:44.626Z,100320.28
2022-10-13T08:50:22.666Z,100316.44
2022-10-13T08:52:58.514Z,100314.97
2022-10-13T08:55:43.785Z,100320.50
2022-10-13T08:58:33.970Z,100312.63
2022-10-13T09:01:18.386Z,100327.56
2022-10-13T09:03:50.935Z,100316.06
2022-10-13T09:06:46.327Z,100322.84
2022-10-13T09:09:17.194Z,100318.34
2022-10-13T09:11:50.533Z,100323.75
2022-10-13T09:14:31.602Z,100311.84
2022-10-13T09:17:16.610Z,100320.56
2022-10-13T09:19:46.289Z,100313.41
2022-10-13T09:22:24.163Z,100307.88
2022-10-13T09:25:18.276Z,100307.75
2022-10-13T09:27:59.213Z,100307.63
2022-10-13T09:30:32.582Z,100305.69
2022-10-13T09:33:13.393Z,100301.34
2022-10-13T09:35:47.573Z,100296.06
2022-10-13T09:38:20.374Z,100302.41
2022-10-13T09:41:04.753Z,100297.91
2022-10-13T09:43:46.922Z,100297.94
2022-10-13T09:46:28.234Z,100284.41
2022-10-13T09:49:07.089Z,100281.47
2022-10-13T09:51:45.775Z,100273.81
2022-10-13T09:54:41.472Z,100274.19
2022-10-13T09:57:24.744Z,100270.59
2022-10-13T10:00:16.604Z,100264.78
2022-10-13T10:03:24.695Z,100258.41
2022-10-13T10:09:04.648Z,100244.81
2022-10-13T10:11:42.569Z,100247.22
2022-10-13T10:14:40.164Z,100242.06
2022-10-13T10:17:29.832Z,100234.31
2022-10-13T10:20:00.704Z,100236.72
2022-10-13T10:22:52.864Z,100228.31
2022-10-13T10:25:37.373Z,100227.63
2022-10-13T10:28:29.177Z,100222.66
2022-10-13T10:31:34.629Z,100223.44
2022-10-13T10:34:35.564Z,100215.41
2022-10-13T10:37:35.241Z,100201.66
2022-10-13T10:41:09.736Z,100197.94
2022-10-13T10:43:55.791Z,100188.72
2022-10-13T10:46:36.361Z,100183.31
2022-10-13T10:49:24.369Z,100183.84
2022-10-13T10:51:52.145Z,100178.03
2022-10-13T10:54:37.514Z,100180.72
2022-10-13T10:57:35.172Z,100175.34
2022-10-13T11:00:20.979Z,100174.22
2022-10-13T11:02:57.407Z,100176.06
2022-10-13T11:05:25.287Z,100164.88
2022-10-13T11:07:52.705Z,100155.00
2022-10-13T11:10:23.066Z,100156.63
2022-10-13T11:12:53.347Z,100153.59
2022-10-13T11:15:45.254Z,100152.84
2022-10-13T11:19:08.169Z,100158.19
2022-10-13T11:21:53.846Z,100152.78
2022-10-13T11:24:48.070Z,100135.88
2022-10-13T11:27:35.029Z,100128.78
2022-10-13T11:30:03.732Z,100134.75
2022-10-13T11:32:33.165Z,100128.63
2022-10-13T11:35:11.215Z,100124.72
2022-10-13T11:38:23.024Z,100120.38
2022-10-13T11:41:16.991Z,100111.50
2022-10-13T11:43:55.862Z,100110.13
2022-10-13T11:47:28.722Z,100107.66
2022-10-13T11:50:17.786Z,100103.84
2022-10-13T11:53:09.730Z,100102.69
2022-10-13T11:55:54.178Z,100093.19
2022-10-13T11:58:32.793Z,100089.88
2022-10-13T12:01:07.476Z,100091.97
2022-10-13T12:03:43.545Z,100084.13
2022-10-13T12:06:37.125Z,100087.38
2022-10-13T12:09:18.424Z,100078.97
2022-10-13T12:11:46.336Z,100077.69
2022-10-13T12:14:32.529Z,100072.56
2022-10-13T12:17:36.030Z,100072.66
2022-10-13T12:20:23.645Z,100074.38
2022-10-13T12:22:53.778Z,100070.41
2022-10-13T12:25:27.950Z,100069.78
2022-10-13T12:28:01.228Z,100064.72
2022-10-13T12:30:38.075Z,100064.19
2022-10-13T12:33:31.839Z,100067.19
2022-10-13T12:36:19.965Z,100065.69
2022-10-13T12:38:54.648Z,100072.69
2022-10-13T12:41:29.016Z,100066.59
2022-10-13T12:44:01.130Z,100065.03
2022-10-13T12:46:56.180Z,100062.91
2022-10-13T12:49:30.655Z,100065.34
2022-10-13T12:52:06.357Z,100052.16
2022-10-13T12:54:43.225Z,100051.09
2022-10-13T12:57:27.142Z,100043.41
2022-10-13T12:59:54.921Z,100036.47
2022-10-13T13:02:48.842Z,100034.19
2022-10-13T13:05:50.961Z,100033.59
2022-10-13T13:08:30.365Z,100032.66
2022-10-13T13:11:24.796Z,100029.53
2022-10-13T13:14:22.927Z,100028.88
2022-10-13T13:17:56.639Z,100024.00
2022-10-13T13:20:27.697Z,100024.53
2022-10-13T13:22:55.881Z,100028.97
2022-10-13T13:25:27.822Z,100025.00
2022-10-13T13:27:55.458Z,100018.91
2022-10-13T13:30:24.802Z,100026.16
2022-10-13T13:32:52.545Z,100035.53
2022-10-13T13:35:20.101Z,100034.97
2022-10-13T13:37:51.085Z,100024.44
2022-10-13T13:40:27.707Z,100034.97
2022-10-13T13:42:55.986Z,100036.41
2022-10-13T13:45:26.992Z,100035.09
2022-10-13T13:47:59.481Z,100030.81
2022-10-13T13:50:34.809Z,100031.06
2022-10-13T13:53:02.932Z,100023.78
2022-10-13T13:55:30.888Z,100014.69
2022-10-13T13:57:59.205Z,100012.81
2022-10-13T14:00:27.564Z,100012.31
2022-10-13T14:02:58.726Z,100012.72
2022-10-13T14:05:26.788Z,100017.28
2022-10-13T14:07:59.039Z,100013.66
2022-10-13T14:10:27.668Z,100012.53
2022-10-13T14:12:55.581Z,100015.69
2022-10-13T14:15:27.186Z,100012.72
2022-10-13T14:17:57.168Z,100022.34
2022-10-13T14:20:24.747Z,100017.19
2022-10-13T14:22:52.303Z,100019.38
2022-10-13T14:25:20.040Z,100010.53
2022-10-13T14:28:07.538Z,100016.19
2022-10-13T14:30:35.526Z,100021.91
2022-10-13T14:33:05.002Z,100014.50
2022-10-13T14:35:32.923Z,100012.16
2022-10-13T14:38:01.601Z,100014.38
2022-10-13T14:40:29.067Z,100007.19
2022-10-13T14:42:56.551Z,100015.50
2022-10-13T14:45:27.052Z,100017.34
2022-10-13T14:47:54.596Z,99995.81
2022-10-13T14:50:22.150Z,100001.34
2022-10-13T14:52:56.056Z,99983.72
2022-10-13T14:55:23.978Z,99988.38
2022-10-13T14:57:51.530Z,99981.34
2022-10-13T15:00:20.158Z,99976.28
2022-10-13T15:02:47.655Z,99976.50
2022-10-13T15:05:16.689Z,99975.06
2022-10-13T15:07:45.287Z,99979.34
2022-10-13T15:10:12.921Z,99975.13
2022-10-13T15:13:03.748Z,99970.91
2022-10-13T15:15:35.952Z,99981.59
2022-10-13T15:18:05.751Z,99966.66
2022-10-13T15:20:35.261Z,99971.50
2022-10-13T15:23:04.579Z,99977.06
2022-10-13T15:25:32.045Z,99974.59
2022-10-13T15:27:59.634Z,99982.06
2022-10-13T15:30:28.192Z,99979.63
2022-10-13T15:32:56.690Z,99976.41
2022-10-13T15:35:24.252Z,99973.22
2022-10-13T15:37:51.748Z,99976.88
2022-10-13T15:40:21.481Z,99973.59
2022-10-13T15:42:50.492Z,99972.16
2022-10-13T15:45:18.651Z,99978.34
2022-10-13T15:47:49.990Z,99972.91
2022-10-13T15:50:18.082Z,99973.22
2022-10-13T15:52:45.858Z,99977.63
2022-10-13T15:55:14.821Z,99981.50
2022-10-13T15:57:43.861Z,99974.34
2022-10-13T16:00:15.929Z,99969.59
2022-10-13T16:02:44.713Z,99970.03
2022-10-13T16:05:13.813Z,99978.25
2022-10-13T16:07:43.224Z,99966.31
2022-10-13T16:10:13.323Z,99969.91
2022-10-13T16:12:46.958Z,99980.31
2022-10-13T16:15:18.801Z,99980.31
2022-10-13T16:17:49.269Z,99980.97
2022-10-13T16:20:17.986Z,99986.22
2022-10-13T16:22:46.490Z,99991.59
2022-10-13T16:25:14.123Z,99993.44
2022-10-13T16:27:44.340Z,99992.38
2022-10-13T16:30:15.262Z,99996.00
2022-10-13T16:32:43.095Z,99995.00
2022-10-13T16:35:12.392Z,99997.66
2022-10-13T16:37:40.638Z,100002.75
2022-10-13T16:40:08.929Z,99998.63
2022-10-13T16:42:37.313Z,100004.66
2022-10-13T16:45:05.634Z,99996.94
2022-10-13T16:47:35.477Z,100003.47
2022-10-13T16:50:09.354Z,100000.31
2022-10-13T16:52:39.064Z,100002.38
2022-10-13T16:55:09.923Z,100005.47
2022-10-13T16:57:38.492Z,99997.91
2022-10-13T17:00:08.158Z,100000.31
2022-10-13T17:02:36.646Z,100006.56
2022-10-13T17:05:06.900Z,100008.44
2022-10-13T17:07:36.807Z,100009.13
2022-10-13T17:10:26.099Z,100009.38
2022-10-13T17:12:54.748Z,100006.19
2022-10-13T17:15:22.230Z,100007.34
2022-10-13T17:17:53.785Z,100008.97
2022-10-13T17:20:25.074Z,100011.84
2022-10-13T17:22:57.248Z,100011.84
2022-10-13T17:25:27.926Z,100009.88
2022-10-13T17:27:55.455Z,100009.09
2022-10-13T17:30:23.624Z,100017.72
2022-10-13T17:32:52.359Z,100020.16
2022-10-13T17:35:27.603Z,100022.38
2022-10-13T17:37:57.457Z,100013.88
2022-10-13T17:40:28.395Z,100021.38
2022-10-13T17:43:00.368Z,100019.72
2022-10-13T17:45:31.981Z,100002.84
2022-10-13T17:48:00.804Z,100006.63
2022-10-13T17:50:41.132Z,100011.63
2022-10-13T17:53:11.675Z,100008.84
2022-10-13T17:55:42.710Z,100009.63
2022-10-13T17:58:31.487Z,100010.28
2022-10-13T18:01:12.919Z,100012.97
2022-10-13T18:03:51.653Z,100008.91
2022-10-13T18:06:22.780Z,100006.84
2022-10-13T18:08:56.613Z,99999.31
2022-10-13T18:11:26.598Z,100005.06
2022-10-13T18:13:56.027Z,99997.13
2022-10-13T18:16:24.841Z,99997.81
2022-10-13T18:19:02.066Z,100000.69
2022-10-13T18:21:31.571Z,100015.56
2022-10-13T18:24:04.316Z,100015.69
2022-10-13T18:26:35.855Z,100003.31
2022-10-13T18:29:08.397Z,100012.91
2022-10-13T18:31:40.397Z,100018.78
2022-10-13T18:34:16.157Z,100012.81
2022-10-13T18:36:50.738Z,100011.16
2022-10-13T18:39:27.369Z,100014.34
2022-10-13T18:41:57.669Z,100017.44
2022-10-13T18:44:35.222Z,100014.13
2022-10-13T18:47:03.885Z,100023.28
2022-10-13T18:49:31.581Z,100023.81
2022-10-13T18:52:00.914Z,100035.84
2022-10-13T18:54:30.024Z,100042.78
2022-10-13T18:56:59.054Z,100043.88
2022-10-13T18:59:28.045Z,100047.13
2022-10-13T19:01:56.820Z,100038.66
2022-10-13T19:04:26.731Z,100041.81
2022-10-13T19:06:55.473Z,100034.69
2022-10-13T19:09:24.889Z,100037.84
2022-10-13T19:12:12.339Z,100044.25
2022-10-13T19:14:39.888Z,100043.47
2022-10-13T19:17:10.649Z,100045.03
2022-10-13T19:19:42.015Z,100046.00
2022-10-13T19:22:10.386Z,100049.91
2022-10-13T19:24:37.919Z,100046.28
2022-10-13T19:27:25.421Z,100045.50
2022-10-13T19:29:53.752Z,100046.22
2022-10-13T19:32:23.332Z,100060.22
2022-10-13T19:34:50.997Z,100057.22
2022-10-13T19:37:18.813Z,100054.16
2022-10-13T19:39:47.950Z,100050.78
2022-10-13T19:42:16.628Z,100056.66
2022-10-13T19:44:46.795Z,100050.94
2022-10-13T19:47:15.833Z,100049.38
2022-10-13T19:49:43.627Z,100057.19
2022-10-13T19:52:11.218Z,100055.69
2022-10-13T19:54:40.685Z,100052.19
2022-10-13T19:57:08.838Z,100048.34
2022-10-13T19:59:38.039Z,100046.91
2022-10-13T20:02:05.754Z,100050.94
2022-10-13T20:04:35.196Z,100047.69
2022-10-13T20:07:05.243Z,100049.88
2022-10-13T20:09:33.646Z,100045.69
2022-10-13T20:12:01.237Z,100053.31
2022-10-13T20:14:30.339Z,100054.72
2022-10-13T20:16:58.865Z,100053.94
2022-10-13T20:19:27.990Z,100058.41
2022-10-13T20:21:59.937Z,100057.63
2022-10-13T20:24:27.731Z,100044.25
2022-10-13T20:26:58.181Z,100062.84
2022-10-13T20:29:26.640Z,100063.66
2022-10-13T20:31:54.236Z,100066.44
2022-10-13T20:34:25.535Z,100056.31
2022-10-13T20:36:57.460Z,100062.69
2022-10-13T20:39:28.116Z,100065.38
2022-10-13T20:41:56.772Z,100068.34
2022-10-13T20:44:24.927Z,100061.59
2022-10-13T20:46:52.456Z,100072.94
2022-10-13T20:49:42.780Z,100069.19
2022-10-13T20:52:13.373Z,100067.00
2022-10-13T20:54:40.885Z,100065.31
2022-10-13T20:57:08.451Z,100061.72
2022-10-13T20:59:36.034Z,100061.34
2022-10-13T21:02:03.681Z,100055.97
2022-10-13T21:04:31.226Z,100056.50
2022-10-13T21:06:58.846Z,100061.09
2022-10-13T21:09:26.919Z,100059.84
2022-10-13T21:11:55.060Z,100054.16
2022-10-13T21:14:27.666Z,100046.56
2022-10-13T21:16:55.327Z,100042.94
2022-10-13T21:19:23.387Z,100044.81
2022-10-13T21:21:50.968Z,100044.16
2022-10-13T21:24:18.615Z,100046.91
2022-10-13T21:26:47.506Z,100040.72
2022-10-13T21:29:15.338Z,100049.09
2022-10-13T21:31:42.870Z,100043.47
2022-10-13T21:34:12.127Z,100035.94
2022-10-13T21:36:44.134Z,100043.13
2022-10-13T21:39:13.781Z,100033.47
2022-10-13T21:41:43.025Z,100027.69
2022-10-13T21:44:14.903Z,100025.72
2022-10-13T21:46:42.568Z,100020.56
2022-10-13T21:49:10.652Z,100012.19
2022-10-13T21:51:44.280Z,100006.91
2022-10-13T21:54:16.385Z,100010.41
2022-10-13T21:56:44.155Z,100011.81
2022-10-13T21:59:13.661Z,100014.38
2022-10-13T22:01:42.394Z,100015.59
2022-10-13T22:04:14.545Z,100011.72
2022-10-13T22:06:42.217Z,100013.53
2022-10-13T22:09:10.014Z,99998.59
2022-10-13T22:11:39.964Z,100004.53
2022-10-13T22:14:13.787Z,99998.66
2022-10-13T22:16:48.065Z,99997.75
2022-10-13T22:19:18.043Z,100004.44
2022-10-13T22:21:49.809Z,100008.94
2022-10-13T22:24:22.341Z,100008.84
2022-10-13T22:26:51.208Z,100004.84
2022-10-13T22:29:25.166Z,100011.25
2022-10-13T22:31:57.613Z,100011.72
2022-10-13T22:34:25.536Z,100008.63
2022-10-13T22:36:54.739Z,100004.94
2022-10-13T22:39:23.763Z,100003.72
2022-10-13T22:41:53.924Z,100004.47
2022-10-13T22:44:21.507Z,100001.72
2022-10-13T22:46:49.207Z,100000.47
2022-10-13T22:49:17.020Z,100009.53
2022-10-13T22:51:44.620Z,100004.09
2022-10-13T22:54:12.525Z,100005.31
2022-10-13T22:56:42.018Z,100018.81
2022-10-13T22:59:11.347Z,100010.56
2022-10-13T23:01:42.502Z,100017.53
2022-10-13T23:04:10.491Z,100014.03
2022-10-13T23:06:38.132Z,100012.28
2022-10-13T23:09:10.924Z,100007.44
2022-10-13T23:11:41.791Z,100010.13
2022-10-13T23:14:12.833Z,100019.34
2022-10-13T23:16:40.426Z,100007.59
2022-10-13T23:19:08.018Z,100012.88
2022-10-13T23:21:35.693Z,100012.38
2022-10-13T23:24:06.391Z,100013.50
2022-10-13T23:26:35.613Z,100024.63
2022-10-13T23:29:03.242Z,100022.47
2022-10-13T23:31:31.384Z,100023.25
2022-10-13T23:33:59.309Z,100015.69
2022-10-13T23:36:31.031Z,100017.81
2022-10-13T23:39:07.385Z,100012.25
2022-10-13T23:41:35.391Z,100023.38
2022-10-13T23:44:03.221Z,100022.75
2022-10-13T23:46:31.081Z,100018.31
2022-10-13T23:48:58.633Z,100014.91
2022-10-13T23:51:27.347Z,100022.47
2022-10-13T23:53:55.437Z,100012.38
2022-10-13T23:56:23.754Z,100012.84
2022-10-13T23:58:51.457Z,100004.13
